sensor_id;sensor_type;location;lat;lon;timestamp;pressure;altitude;pressure_sealevel;temperature;humidity
11605;BME280;5858;43.076;25.626;2023-03-22T00:01:14;98970.00;;;12.79;100.00
11605;BME280;5858;43.076;25.626;2023-03-22T00:03:44;98962.13;;;12.71;100.00
11605;BME280;5858;43.076;25.626;2023-03-22T00:06:11;98928.84;;;12.39;100.00
11605;BME280;5858;43.076;25.626;2023-03-22T00:08:38;98970.78;;;12.67;100.00
11605;BME280;5858;43.076;25.626;2023-03-22T00:11:11;98977.81;;;12.61;100.00
11605;BME280;5858;43.076;25.626;2023-03-22T00:13:38;98900.94;;;12.14;100.00
11605;BME280;5858;43.076;25.626;2023-03-22T00:16:14;98981.94;;;12.64;100.00
11605;BME280;5858;43.076;25.626;2023-03-22T00:18:45;98892.50;;;12.17;100.00
11605;BME280;5858;43.076;25.626;2023-03-22T00:21:15;98870.72;;;11.79;100.00
11605;BME280;5858;43.076;25.626;2023-03-22T00:23:42;98939.31;;;12.21;100.00
11605;BME280;5858;43.076;25.626;2023-03-22T00:26:11;98906.88;;;11.96;100.00
11605;BME280;5858;43.076;25.626;2023-03-22T00:28:38;98962.91;;;12.32;100.00
11605;BME280;5858;43.076;25.626;2023-03-22T00:31:06;98965.59;;;12.39;100.00
11605;BME280;5858;43.076;25.626;2023-03-22T00:33:36;98946.16;;;12.23;100.00
11605;BME280;5858;43.076;25.626;2023-03-22T00:36:05;98941.00;;;12.28;100.00
11605;BME280;5858;43.076;25.626;2023-03-22T00:38:33;98973.66;;;12.52;100.00
11605;BME280;5858;43.076;25.626;2023-03-22T00:41:07;98971.19;;;12.57;100.00
11605;BME280;5858;43.076;25.626;2023-03-22T00:43:34;98980.06;;;12.57;100.00
11605;BME280;5858;43.076;25.626;2023-03-22T00:46:02;98974.50;;;12.66;100.00
11605;BME280;5858;43.076;25.626;2023-03-22T00:48:29;98967.06;;;12.61;100.00
11605;BME280;5858;43.076;25.626;2023-03-22T00:50:58;98804.47;;;11.46;100.00
11605;BME280;5858;43.076;25.626;2023-03-22T00:53:31;98965.81;;;12.57;100.00
11605;BME280;5858;43.076;25.626;2023-03-22T00:55:59;98888.38;;;12.21;100.00
11605;BME280;5858;43.076;25.626;2023-03-22T00:58:26;98949.94;;;12.55;100.00
11605;BME280;5858;43.076;25.626;2023-03-22T01:00:56;98962.53;;;12.68;100.00
11605;BME280;5858;43.076;25.626;2023-03-22T01:03:23;98874.94;;;12.01;100.00
11605;BME280;5858;43.076;25.626;2023-03-22T01:05:51;98937.72;;;12.40;100.00
11605;BME280;5858;43.076;25.626;2023-03-22T01:08:22;98962.31;;;12.56;100.00
11605;BME280;5858;43.076;25.626;2023-03-22T01:10:49;98914.63;;;12.32;100.00
11605;BME280;5858;43.076;25.626;2023-03-22T01:13:16;98820.44;;;11.81;100.00
11605;BME280;5858;43.076;25.626;2023-03-22T01:15:43;98961.50;;;12.63;100.00
11605;BME280;5858;43.076;25.626;2023-03-22T01:18:12;98944.34;;;12.50;100.00
11605;BME280;5858;43.076;25.626;2023-03-22T01:20:39;98890.22;;;12.14;100.00
11605;BME280;5858;43.076;25.626;2023-03-22T01:23:06;98937.53;;;12.41;100.00
11605;BME280;5858;43.076;25.626;2023-03-22T01:25:34;98970.56;;;12.68;100.00
11605;BME280;5858;43.076;25.626;2023-03-22T01:28:01;98968.72;;;12.75;100.00
11605;BME280;5858;43.076;25.626;2023-03-22T01:30:28;98954.50;;;12.81;100.00
11605;BME280;5858;43.076;25.626;2023-03-22T01:32:56;98943.53;;;12.70;100.00
11605;BME280;5858;43.076;25.626;2023-03-22T01:35:23;98915.38;;;12.19;100.00
11605;BME280;5858;43.076;25.626;2023-03-22T01:37:53;98935.41;;;12.23;100.00
11605;BME280;5858;43.076;25.626;2023-03-22T01:40:20;98958.78;;;12.36;100.00
11605;BME280;5858;43.076;25.626;2023-03-22T01:42:49;98956.94;;;12.43;100.00
11605;BME280;5858;43.076;25.626;2023-03-22T01:45:38;98936.28;;;12.31;100.00
11605;BME280;5858;43.076;25.626;2023-03-22T01:48:13;98908.16;;;12.13;100.00
11605;BME280;5858;43.076;25.626;2023-03-22T01:50:48;98923.44;;;12.26;100.00
11605;BME280;5858;43.076;25.626;2023-03-22T01:53:22;98941.03;;;12.42;100.00
11605;BME280;5858;43.076;25.626;2023-03-22T01:55:50;98882.78;;;12.16;100.00
11605;BME280;5858;43.076;25.626;2023-03-22T01:58:23;98943.72;;;12.61;100.00
11605;BME280;5858;43.076;25.626;2023-03-22T02:00:51;98946.63;;;12.60;100.00
11605;BME280;5858;43.076;25.626;2023-03-22T02:03:24;98948.66;;;12.38;100.00
11605;BME280;5858;43.076;25.626;2023-03-22T02:05:53;98947.84;;;12.51;100.00
11605;BME280;5858;43.076;25.626;2023-03-22T02:08:21;98942.91;;;12.61;100.00
11605;BME280;5858;43.076;25.626;2023-03-22T02:10:48;98946.63;;;12.53;100.00
11605;BME280;5858;43.076;25.626;2023-03-22T02:13:28;98944.75;;;12.47;100.00
11605;BME280;5858;43.076;25.626;2023-03-22T02:16:04;98930.91;;;12.31;100.00
11605;BME280;5858;43.076;25.626;2023-03-22T02:18:45;98917.66;;;12.29;100.00
11605;BME280;5858;43.076;25.626;2023-03-22T02:24:51;98941.88;;;12.42;100.00
11605;BME280;5858;43.076;25.626;2023-03-22T02:27:34;98938.75;;;12.39;100.00
11605;BME280;5858;43.076;25.626;2023-03-22T02:30:25;98931.91;;;12.23;100.00
11605;BME280;5858;43.076;25.626;2023-03-22T02:33:14;98893.88;;;11.93;100.00
11605;BME280;5858;43.076;25.626;2023-03-22T02:39:12;98948.41;;;12.26;100.00
11605;BME280;5858;43.076;25.626;2023-03-22T02:41:46;98919.09;;;12.12;100.00
11605;BME280;5858;43.076;25.626;2023-03-22T02:44:25;98956.72;;;12.38;100.00
11605;BME280;5858;43.076;25.626;2023-03-22T02:46:59;98947.16;;;12.22;100.00
11605;BME280;5858;43.076;25.626;2023-03-22T02:49:33;98923.81;;;12.03;100.00
11605;BME280;5858;43.076;25.626;2023-03-22T02:52:06;98957.69;;;12.24;100.00
11605;BME280;5858;43.076;25.626;2023-03-22T02:54:42;98942.81;;;12.08;100.00
11605;BME280;5858;43.076;25.626;2023-03-22T02:57:15;98962.81;;;12.12;100.00
11605;BME280;5858;43.076;25.626;2023-03-22T02:59:44;98838.69;;;11.51;100.00
11605;BME280;5858;43.076;25.626;2023-03-22T03:02:14;98891.28;;;11.65;100.00
11605;BME280;5858;43.076;25.626;2023-03-22T03:04:45;98953.31;;;12.03;100.00
11605;BME280;5858;43.076;25.626;2023-03-22T03:07:16;98966.75;;;12.16;100.00
11605;BME280;5858;43.076;25.626;2023-03-22T03:09:47;98981.59;;;12.12;100.00
11605;BME280;5858;43.076;25.626;2023-03-22T03:12:16;98976.59;;;11.96;100.00
11605;BME280;5858;43.076;25.626;2023-03-22T03:14:46;98925.75;;;11.75;100.00
11605;BME280;5858;43.076;25.626;2023-03-22T03:17:21;98971.09;;;11.76;100.00
11605;BME280;5858;43.076;25.626;2023-03-22T03:20:00;98954.78;;;11.64;100.00
11605;BME280;5858;43.076;25.626;2023-03-22T03:22:41;98910.06;;;11.30;100.00
11605;BME280;5858;43.076;25.626;2023-03-22T03:25:17;98912.63;;;11.39;100.00
11605;BME280;5858;43.076;25.626;2023-03-22T03:27:49;98947.16;;;11.68;100.00
11605;BME280;5858;43.076;25.626;2023-03-22T03:30:20;98927.34;;;11.62;100.00
11605;BME280;5858;43.076;25.626;2023-03-22T03:32:54;98949.44;;;11.71;100.00
11605;BME280;5858;43.076;25.626;2023-03-22T03:35:26;98945.91;;;11.64;100.00
11605;BME280;5858;43.076;25.626;2023-03-22T03:37:58;98930.44;;;11.59;100.00
11605;BME280;5858;43.076;25.626;2023-03-22T03:40:30;98959.53;;;11.69;100.00
11605;BME280;5858;43.076;25.626;2023-03-22T03:43:01;98922.97;;;11.48;100.00
11605;BME280;5858;43.076;25.626;2023-03-22T03:45:29;98968.88;;;11.80;100.00
11605;BME280;5858;43.076;25.626;2023-03-22T03:47:57;98967.50;;;11.90;100.00
11605;BME280;5858;43.076;25.626;2023-03-22T03:50:26;98962.78;;;11.99;100.00
11605;BME280;5858;43.076;25.626;2023-03-22T03:52:54;98963.19;;;11.96;100.00
11605;BME280;5858;43.076;25.626;2023-03-22T03:55:23;98973.53;;;11.99;100.00
11605;BME280;5858;43.076;25.626;2023-03-22T03:57:52;98933.53;;;11.63;100.00
11605;BME280;5858;43.076;25.626;2023-03-22T04:00:19;98985.50;;;12.03;100.00
11605;BME280;5858;43.076;25.626;2023-03-22T04:02:46;98982.44;;;12.13;100.00
11605;BME280;5858;43.076;25.626;2023-03-22T04:05:13;98980.16;;;12.16;100.00
11605;BME280;5858;43.076;25.626;2023-03-22T04:07:40;98956.59;;;11.98;100.00
11605;BME280;5858;43.076;25.626;2023-03-22T04:10:07;98970.47;;;12.09;100.00
11605;BME280;5858;43.076;25.626;2023-03-22T04:12:34;98969.59;;;11.95;100.00
11605;BME280;5858;43.076;25.626;2023-03-22T04:15:03;98970.41;;;11.95;100.00
11605;BME280;5858;43.076;25.626;2023-03-22T04:17:30;98979.88;;;11.91;100.00
11605;BME280;5858;43.076;25.626;2023-03-22T04:19:58;98986.88;;;11.86;100.00
11605;BME280;5858;43.076;25.626;2023-03-22T04:22:29;98997.59;;;11.86;100.00
11605;BME280;5858;43.076;25.626;2023-03-22T04:24:59;98972.50;;;11.65;100.00
11605;BME280;5858;43.076;25.626;2023-03-22T04:27:26;98990.19;;;11.88;100.00
11605;BME280;5858;43.076;25.626;2023-03-22T04:29:53;98994.72;;;11.87;100.00
11605;BME280;5858;43.076;25.626;2023-03-22T04:32:22;98952.72;;;11.66;100.00
11605;BME280;5858;43.076;25.626;2023-03-22T04:34:49;98980.63;;;11.79;100.00
11605;BME280;5858;43.076;25.626;2023-03-22T04:37:16;98995.81;;;11.72;100.00
11605;BME280;5858;43.076;25.626;2023-03-22T04:39:44;98993.09;;;11.93;100.00
11605;BME280;5858;43.076;25.626;2023-03-22T04:42:11;98994.53;;;11.89;100.00
11605;BME280;5858;43.076;25.626;2023-03-22T04:44:38;98992.69;;;11.96;100.00
11605;BME280;5858;43.076;25.626;2023-03-22T04:47:05;98958.38;;;11.78;100.00
11605;BME280;5858;43.076;25.626;2023-03-22T04:49:33;98995.78;;;11.93;100.00
11605;BME280;5858;43.076;25.626;2023-03-22T04:52:00;98995.13;;;11.84;100.00
11605;BME280;5858;43.076;25.626;2023-03-22T04:54:27;98996.22;;;12.03;100.00
11605;BME280;5858;43.076;25.626;2023-03-22T04:56:54;98973.28;;;11.87;100.00
11605;BME280;5858;43.076;25.626;2023-03-22T04:59:21;98985.22;;;11.85;100.00
11605;BME280;5858;43.076;25.626;2023-03-22T05:01:48;98980.63;;;11.79;100.00
11605;BME280;5858;43.076;25.626;2023-03-22T05:04:16;98972.94;;;11.69;100.00
11605;BME280;5858;43.076;25.626;2023-03-22T05:06:45;99036.91;;;12.20;100.00
11605;BME280;5858;43.076;25.626;2023-03-22T05:09:12;99031.13;;;12.16;100.00
11605;BME280;5858;43.076;25.626;2023-03-22T05:11:39;98976.59;;;11.96;100.00
11605;BME280;5858;43.076;25.626;2023-03-22T05:14:07;99033.44;;;12.26;100.00
11605;BME280;5858;43.076;25.626;2023-03-22T05:16:34;98943.06;;;11.72;100.00
11605;BME280;5858;43.076;25.626;2023-03-22T05:19:01;98999.53;;;12.05;100.00
11605;BME280;5858;43.076;25.626;2023-03-22T05:21:29;99035.72;;;12.29;100.00
11605;BME280;5858;43.076;25.626;2023-03-22T05:24:03;98908.13;;;11.52;100.00
11605;BME280;5858;43.076;25.626;2023-03-22T05:26:30;98969.16;;;11.91;100.00
11605;BME280;5858;43.076;25.626;2023-03-22T05:28:58;98992.72;;;12.03;100.00
11605;BME280;5858;43.076;25.626;2023-03-22T05:31:25;99050.44;;;12.40;100.00
11605;BME280;5858;43.076;25.626;2023-03-22T05:33:53;99048.97;;;12.31;100.00
11605;BME280;5858;43.076;25.626;2023-03-22T05:36:21;99036.25;;;12.05;100.00
11605;BME280;5858;43.076;25.626;2023-03-22T05:38:48;99045.72;;;12.01;100.00
11605;BME280;5858;43.076;25.626;2023-03-22T05:41:16;98968.53;;;11.55;100.00
11605;BME280;5858;43.076;25.626;2023-03-22T05:43:44;99033.97;;;12.02;100.00
11605;BME280;5858;43.076;25.626;2023-03-22T05:46:11;99020.00;;;11.78;100.00
11605;BME280;5858;43.076;25.626;2023-03-22T05:48:39;99027.41;;;11.76;100.00
11605;BME280;5858;43.076;25.626;2023-03-22T05:51:06;99077.28;;;11.98;100.00
11605;BME280;5858;43.076;25.626;2023-03-22T05:53:34;99077.00;;;11.87;100.00
11605;BME280;5858;43.076;25.626;2023-03-22T05:56:00;99056.72;;;11.78;100.00
11605;BME280;5858;43.076;25.626;2023-03-22T05:58:30;99079.09;;;11.91;100.00
11605;BME280;5858;43.076;25.626;2023-03-22T06:01:03;99050.19;;;11.59;100.00
11605;BME280;5858;43.076;25.626;2023-03-22T06:03:30;99078.84;;;11.58;100.00
11605;BME280;5858;43.076;25.626;2023-03-22T06:05:58;98982.16;;;10.97;100.00
11605;BME280;5858;43.076;25.626;2023-03-22T06:08:25;99068.66;;;11.47;100.00
11605;BME280;5858;43.076;25.626;2023-03-22T06:10:52;99094.03;;;11.51;100.00
11605;BME280;5858;43.076;25.626;2023-03-22T06:13:20;99099.59;;;11.50;100.00
11605;BME280;5858;43.076;25.626;2023-03-22T06:15:49;99108.41;;;11.44;100.00
11605;BME280;5858;43.076;25.626;2023-03-22T06:18:16;99093.13;;;11.38;100.00
11605;BME280;5858;43.076;25.626;2023-03-22T06:20:43;99114.03;;;11.27;100.00
11605;BME280;5858;43.076;25.626;2023-03-22T06:23:10;99079.88;;;11.08;100.00
11605;BME280;5858;43.076;25.626;2023-03-22T06:25:37;99064.31;;;10.97;100.00
11605;BME280;5858;43.076;25.626;2023-03-22T06:28:04;98983.72;;;10.43;100.00
11605;BME280;5858;43.076;25.626;2023-03-22T06:30:31;99108.94;;;11.11;100.00
11605;BME280;5858;43.076;25.626;2023-03-22T06:33:00;99125.31;;;11.23;100.00
11605;BME280;5858;43.076;25.626;2023-03-22T06:35:29;99127.41;;;11.27;100.00
11605;BME280;5858;43.076;25.626;2023-03-22T06:37:57;99127.41;;;11.27;100.00
11605;BME280;5858;43.076;25.626;2023-03-22T06:40:24;99135.63;;;11.26;100.00
11605;BME280;5858;43.076;25.626;2023-03-22T06:42:51;99140.94;;;11.41;100.00
11605;BME280;5858;43.076;25.626;2023-03-22T06:45:19;99072.50;;;10.89;100.00
11605;BME280;5858;43.076;25.626;2023-03-22T06:47:46;99146.75;;;11.44;100.00
11605;BME280;5858;43.076;25.626;2023-03-22T06:50:14;99125.25;;;11.16;100.00
11605;BME280;5858;43.076;25.626;2023-03-22T06:52:41;99154.25;;;11.34;100.00
11605;BME280;5858;43.076;25.626;2023-03-22T06:55:09;99158.78;;;11.33;100.00
11605;BME280;5858;43.076;25.626;2023-03-22T06:57:36;99165.09;;;11.26;100.00
11605;BME280;5858;43.076;25.626;2023-03-22T07:00:03;99154.53;;;11.18;100.00
11605;BME280;5858;43.076;25.626;2023-03-22T07:02:31;99178.75;;;11.10;100.00
11605;BME280;5858;43.076;25.626;2023-03-22T07:05:00;99177.53;;;11.12;100.00
11605;BME280;5858;43.076;25.626;2023-03-22T07:07:29;99190.34;;;11.17;100.00
11605;BME280;5858;43.076;25.626;2023-03-22T07:09:56;99223.69;;;11.14;100.00
11605;BME280;5858;43.076;25.626;2023-03-22T07:12:23;99121.56;;;10.60;100.00
11605;BME280;5858;43.076;25.626;2023-03-22T07:14:50;99193.09;;;11.23;100.00
11605;BME280;5858;43.076;25.626;2023-03-22T07:17:18;99172.06;;;11.20;100.00
11605;BME280;5858;43.076;25.626;2023-03-22T07:19:45;99151.06;;;11.02;100.00
11605;BME280;5858;43.076;25.626;2023-03-22T07:22:12;99060.81;;;10.39;100.00
11605;BME280;5858;43.076;25.626;2023-03-22T07:24:41;99119.56;;;10.83;100.00
11605;BME280;5858;43.076;25.626;2023-03-22T07:27:08;99057.31;;;10.38;100.00
11605;BME280;5858;43.076;25.626;2023-03-22T07:29:35;99124.88;;;10.62;100.00
11605;BME280;5858;43.076;25.626;2023-03-22T07:32:02;99163.25;;;11.05;100.00
11605;BME280;5858;43.076;25.626;2023-03-22T07:34:29;99174.03;;;11.12;100.00
11605;BME280;5858;43.076;25.626;2023-03-22T07:36:57;99124.16;;;10.89;100.00
11605;BME280;5858;43.076;25.626;2023-03-22T07:39:25;99173.31;;;11.24;100.00
11605;BME280;5858;43.076;25.626;2023-03-22T07:41:55;99167.16;;;10.88;100.00
11605;BME280;5858;43.076;25.626;2023-03-22T07:44:22;99168.28;;;10.93;100.00
11605;BME280;5858;43.076;25.626;2023-03-22T07:46:49;99173.78;;;11.07;100.00
11605;BME280;5858;43.076;25.626;2023-03-22T07:49:17;99172.44;;;11.17;100.00
11605;BME280;5858;43.076;25.626;2023-03-22T07:51:44;99187.50;;;11.40;100.00
11605;BME280;5858;43.076;25.626;2023-03-22T07:54:11;99177.81;;;11.39;100.00
11605;BME280;5858;43.076;25.626;2023-03-22T07:56:38;99151.66;;;11.41;100.00
11605;BME280;5858;43.076;25.626;2023-03-22T07:59:08;99097.25;;;11.19;100.00
11605;BME280;5858;43.076;25.626;2023-03-22T08:01:36;99182.13;;;11.82;100.00
11605;BME280;5858;43.076;25.626;2023-03-22T08:04:03;99108.06;;;11.53;100.00
11605;BME280;5858;43.076;25.626;2023-03-22T08:06:30;99175.31;;;12.08;100.00
11605;BME280;5858;43.076;25.626;2023-03-22T08:08:57;99179.25;;;12.12;100.00
11605;BME280;5858;43.076;25.626;2023-03-22T08:11:24;99176.84;;;12.23;100.00
11605;BME280;5858;43.076;25.626;2023-03-22T08:13:51;99190.81;;;12.47;100.00
11605;BME280;5858;43.076;25.626;2023-03-22T08:16:20;99194.63;;;12.66;100.00
11605;BME280;5858;43.076;25.626;2023-03-22T08:18:47;99173.59;;;12.76;100.00
11605;BME280;5858;43.076;25.626;2023-03-22T08:21:14;99142.75;;;12.58;100.00
11605;BME280;5858;43.076;25.626;2023-03-22T08:23:42;99093.97;;;12.35;100.00
11605;BME280;5858;43.076;25.626;2023-03-22T08:26:09;99178.88;;;13.10;100.00
11605;BME280;5858;43.076;25.626;2023-03-22T08:28:36;99164.41;;;13.11;98.46
11605;BME280;5858;43.076;25.626;2023-03-22T08:31:10;99169.66;;;13.26;98.95
11605;BME280;5858;43.076;25.626;2023-03-22T08:33:39;99140.84;;;13.13;100.00
11605;BME280;5858;43.076;25.626;2023-03-22T08:36:08;99164.84;;;13.15;99.69
11605;BME280;5858;43.076;25.626;2023-03-22T08:38:37;99175.78;;;13.13;98.20
11605;BME280;5858;43.076;25.626;2023-03-22T08:41:04;99174.84;;;13.34;100.00
11605;BME280;5858;43.076;25.626;2023-03-22T08:43:31;99180.63;;;13.31;99.61
11605;BME280;5858;43.076;25.626;2023-03-22T08:45:58;99179.00;;;13.63;97.81
11605;BME280;5858;43.076;25.626;2023-03-22T08:48:27;99172.38;;;13.92;96.23
11605;BME280;5858;43.076;25.626;2023-03-22T08:50:56;99169.25;;;14.02;99.98
11605;BME280;5858;43.076;25.626;2023-03-22T08:53:24;99195.13;;;14.03;97.55
11605;BME280;5858;43.076;25.626;2023-03-22T08:55:51;99138.47;;;13.78;99.06
11605;BME280;5858;43.076;25.626;2023-03-22T08:58:18;99181.50;;;13.91;98.30
11605;BME280;5858;43.076;25.626;2023-03-22T09:00:45;99168.88;;;13.85;97.46
11605;BME280;5858;43.076;25.626;2023-03-22T09:03:12;99193.88;;;14.12;99.39
11605;BME280;5858;43.076;25.626;2023-03-22T09:05:40;99185.38;;;14.28;99.16
11605;BME280;5858;43.076;25.626;2023-03-22T09:08:09;99200.03;;;14.52;95.71
11605;BME280;5858;43.076;25.626;2023-03-22T09:10:37;99161.81;;;14.04;98.19
11605;BME280;5858;43.076;25.626;2023-03-22T09:13:04;99210.84;;;14.26;95.47
11605;BME280;5858;43.076;25.626;2023-03-22T09:15:33;99206.91;;;14.28;97.84
11605;BME280;5858;43.076;25.626;2023-03-22T09:18:00;99203.19;;;14.42;97.28
11605;BME280;5858;43.076;25.626;2023-03-22T09:20:27;99215.78;;;14.35;95.43
11605;BME280;5858;43.076;25.626;2023-03-22T09:22:54;99206.44;;;14.58;95.45
11605;BME280;5858;43.076;25.626;2023-03-22T09:25:23;99205.16;;;14.80;95.09
11605;BME280;5858;43.076;25.626;2023-03-22T09:27:50;99207.34;;;14.96;95.02
11605;BME280;5858;43.076;25.626;2023-03-22T09:30:17;99095.34;;;14.17;91.87
11605;BME280;5858;43.076;25.626;2023-03-22T09:32:44;99192.03;;;14.90;92.15
11605;BME280;5858;43.076;25.626;2023-03-22T09:35:10;99194.88;;;15.02;92.06
11605;BME280;5858;43.076;25.626;2023-03-22T09:37:37;99198.56;;;15.14;91.87
11605;BME280;5858;43.076;25.626;2023-03-22T09:40:06;99211.38;;;15.25;91.02
11605;BME280;5858;43.076;25.626;2023-03-22T09:42:37;99191.94;;;15.10;90.74
11605;BME280;5858;43.076;25.626;2023-03-22T09:45:12;99182.72;;;15.31;90.92
11605;BME280;5858;43.076;25.626;2023-03-22T09:47:44;99203.09;;;15.52;90.86
11605;BME280;5858;43.076;25.626;2023-03-22T09:50:16;99181.41;;;15.40;90.34
11605;BME280;5858;43.076;25.626;2023-03-22T09:52:44;99210.53;;;15.63;88.88
11605;BME280;5858;43.076;25.626;2023-03-22T09:55:17;99180.91;;;15.50;88.00
11605;BME280;5858;43.076;25.626;2023-03-22T09:57:51;99185.66;;;15.54;87.78
11605;BME280;5858;43.076;25.626;2023-03-22T10:00:26;99213.88;;;15.58;85.12
11605;BME280;5858;43.076;25.626;2023-03-22T10:03:05;99204.31;;;15.56;83.37
11605;BME280;5858;43.076;25.626;2023-03-22T10:05:39;99196.09;;;15.44;84.72
11605;BME280;5858;43.076;25.626;2023-03-22T10:08:25;99187.53;;;15.22;85.96
11605;BME280;5858;43.076;25.626;2023-03-22T10:10:55;99212.16;;;15.32;87.38
11605;BME280;5858;43.076;25.626;2023-03-22T10:13:31;99183.31;;;14.95;86.93
11605;BME280;5858;43.076;25.626;2023-03-22T10:16:01;99175.75;;;14.72;87.38
11605;BME280;5858;43.076;25.626;2023-03-22T10:18:33;99213.44;;;14.78;90.08
11605;BME280;5858;43.076;25.626;2023-03-22T10:21:03;99175.44;;;14.29;90.34
11605;BME280;5858;43.076;25.626;2023-03-22T10:23:33;99217.47;;;14.23;89.23
11605;BME280;5858;43.076;25.626;2023-03-22T10:26:03;99208.38;;;14.04;91.41
11605;BME280;5858;43.076;25.626;2023-03-22T10:28:37;99200.72;;;14.08;95.05
11605;BME280;5858;43.076;25.626;2023-03-22T10:31:05;99204.00;;;14.16;95.32
11605;BME280;5858;43.076;25.626;2023-03-22T10:33:41;99168.44;;;14.01;96.26
11605;BME280;5858;43.076;25.626;2023-03-22T10:36:17;99173.78;;;14.14;92.57
11605;BME280;5858;43.076;25.626;2023-03-22T10:38:48;99196.13;;;14.35;94.52
11605;BME280;5858;43.076;25.626;2023-03-22T10:41:18;99134.53;;;13.80;92.95
11605;BME280;5858;43.076;25.626;2023-03-22T10:43:51;99063.41;;;13.17;93.82
11605;BME280;5858;43.076;25.626;2023-03-22T10:46:20;99163.50;;;13.78;93.85
11605;BME280;5858;43.076;25.626;2023-03-22T10:48:50;99194.31;;;14.02;93.07
11605;BME280;5858;43.076;25.626;2023-03-22T10:51:23;99176.13;;;13.84;95.10
11605;BME280;5858;43.076;25.626;2023-03-22T10:53:53;99184.56;;;14.08;94.08
11605;BME280;5858;43.076;25.626;2023-03-22T10:56:23;99083.88;;;13.58;94.63
11605;BME280;5858;43.076;25.626;2023-03-22T10:58:54;99184.34;;;14.16;93.19
11605;BME280;5858;43.076;25.626;2023-03-22T11:01:27;99124.19;;;13.77;93.44
11605;BME280;5858;43.076;25.626;2023-03-22T11:03:58;99183.56;;;13.96;94.58
11605;BME280;5858;43.076;25.626;2023-03-22T11:06:27;99177.16;;;13.90;93.90
11605;BME280;5858;43.076;25.626;2023-03-22T11:08:59;99185.22;;;13.90;93.07
11605;BME280;5858;43.076;25.626;2023-03-22T11:11:28;99166.56;;;14.02;93.92
11605;BME280;5858;43.076;25.626;2023-03-22T11:14:05;99172.34;;;14.18;93.25
11605;BME280;5858;43.076;25.626;2023-03-22T11:16:41;99140.50;;;13.96;93.06
11605;BME280;5858;43.076;25.626;2023-03-22T11:19:14;99152.44;;;14.33;95.49
11605;BME280;5858;43.076;25.626;2023-03-22T11:21:44;99165.00;;;14.59;94.92
11605;BME280;5858;43.076;25.626;2023-03-22T11:24:13;99177.03;;;14.56;93.67
11605;BME280;5858;43.076;25.626;2023-03-22T11:26:40;99158.66;;;14.33;94.40
11605;BME280;5858;43.076;25.626;2023-03-22T11:29:16;99170.41;;;14.59;94.59
11605;BME280;5858;43.076;25.626;2023-03-22T11:31:53;99153.47;;;14.45;92.50
11605;BME280;5858;43.076;25.626;2023-03-22T11:34:24;99172.25;;;14.65;92.36
11605;BME280;5858;43.076;25.626;2023-03-22T11:36:52;99169.81;;;14.37;90.83
11605;BME280;5858;43.076;25.626;2023-03-22T11:39:23;99153.25;;;14.46;91.02
11605;BME280;5858;43.076;25.626;2023-03-22T11:41:53;99137.09;;;14.40;94.23
11605;BME280;5858;43.076;25.626;2023-03-22T11:44:27;99159.03;;;14.50;93.25
11605;BME280;5858;43.076;25.626;2023-03-22T11:47:00;99153.88;;;14.48;92.14
11605;BME280;5858;43.076;25.626;2023-03-22T11:49:37;99147.03;;;14.53;93.29
11605;BME280;5858;43.076;25.626;2023-03-22T11:52:07;99142.28;;;14.41;92.46
11605;BME280;5858;43.076;25.626;2023-03-22T11:54:37;99130.50;;;14.29;92.98
11605;BME280;5858;43.076;25.626;2023-03-22T11:57:12;99144.75;;;14.49;91.00
11605;BME280;5858;43.076;25.626;2023-03-22T11:59:47;99103.56;;;14.42;92.31
11605;BME280;5858;43.076;25.626;2023-03-22T12:02:19;99154.22;;;14.65;90.12
11605;BME280;5858;43.076;25.626;2023-03-22T12:04:52;99158.19;;;14.56;89.63
11605;BME280;5858;43.076;25.626;2023-03-22T12:07:22;99135.81;;;14.56;91.10
11605;BME280;5858;43.076;25.626;2023-03-22T12:09:53;99149.25;;;14.69;90.27
11605;BME280;5858;43.076;25.626;2023-03-22T12:12:26;99151.56;;;14.59;87.42
11605;BME280;5858;43.076;25.626;2023-03-22T12:14:59;99156.78;;;14.47;87.90
11605;BME280;5858;43.076;25.626;2023-03-22T12:17:33;99111.91;;;14.21;88.75
11605;BME280;5858;43.076;25.626;2023-03-22T12:20:14;99143.06;;;14.55;89.63
11605;BME280;5858;43.076;25.626;2023-03-22T12:22:47;99101.97;;;14.15;88.21
11605;BME280;5858;43.076;25.626;2023-03-22T12:25:19;99116.38;;;14.40;88.21
11605;BME280;5858;43.076;25.626;2023-03-22T12:27:51;99148.41;;;14.75;88.03
11605;BME280;5858;43.076;25.626;2023-03-22T12:30:24;99152.16;;;14.67;88.22
11605;BME280;5858;43.076;25.626;2023-03-22T12:32:56;99083.13;;;14.15;87.05
11605;BME280;5858;43.076;25.626;2023-03-22T12:35:29;99101.31;;;14.33;88.01
11605;BME280;5858;43.076;25.626;2023-03-22T12:37:58;99146.81;;;14.54;87.23
11605;BME280;5858;43.076;25.626;2023-03-22T12:40:29;99090.59;;;14.20;88.95
11605;BME280;5858;43.076;25.626;2023-03-22T12:43:06;99154.84;;;14.61;87.70
11605;BME280;5858;43.076;25.626;2023-03-22T12:45:41;99117.66;;;14.31;88.24
11605;BME280;5858;43.076;25.626;2023-03-22T12:48:14;99070.59;;;13.82;88.89
11605;BME280;5858;43.076;25.626;2023-03-22T12:50:46;99065.03;;;13.64;88.75
11605;BME280;5858;43.076;25.626;2023-03-22T12:53:15;99142.59;;;13.87;88.92
11605;BME280;5858;43.076;25.626;2023-03-22T12:55:45;99074.16;;;13.23;89.34
11605;BME280;5858;43.076;25.626;2023-03-22T12:58:17;99144.66;;;13.65;90.02
11605;BME280;5858;43.076;25.626;2023-03-22T13:00:50;99152.94;;;13.64;89.47
11605;BME280;5858;43.076;25.626;2023-03-22T13:03:24;99147.34;;;13.59;89.57
11605;BME280;5858;43.076;25.626;2023-03-22T13:06:00;99145.06;;;13.62;89.99
11605;BME280;5858;43.076;25.626;2023-03-22T13:11:44;99138.66;;;13.57;89.16
11605;BME280;5858;43.076;25.626;2023-03-22T13:14:52;99131.84;;;13.41;87.94
11605;BME280;5858;43.076;25.626;2023-03-22T13:17:14;99154.78;;;13.43;88.46